Time;durP1;ratioP1;P1;durP2;ratioP2;P2;SDS_P1;SDS_P2;PMS_P1;PMS_P2;Temp;Humidity;BMP_temperature;BMP_pressure;BME280_temperature;BME280_humidity;BME280_pressure;Samples;Min_cycle;Max_cycle;Signal;HPM_P1;HPM_P2
2023/04/29 00:04:09;;;;;;;12.20;4.77;;;;;;;6.13;100.00;94824.38;10428145;28;20029;-78
2023/04/29 00:09:09;;;;;;;6.23;4.47;;;;;;;6.00;100.00;94822.84;10427447;28;20271;-78
2023/04/29 00:14:10;;;;;;;10.50;4.63;;;;;;;6.10;100.00;94811.53;10427193;28;20303;-78
2023/04/29 00:19:11;;;;;;;8.90;4.68;;;;;;;6.19;100.00;94830.59;10427141;28;20306;-78
2023/04/29 00:24:11;;;;;;;6.15;4.15;;;;;;;5.99;100.00;94832.69;10427652;28;20491;-78
2023/04/29 00:29:11;;;;;;;7.70;3.60;;;;;;;5.92;100.00;94832.00;10428755;28;20025;-78
2023/04/29 00:34:12;;;;;;;5.40;4.10;;;;;;;5.70;100.00;94841.75;10387149;28;20466;-78
2023/04/29 00:39:12;;;;;;;7.33;4.60;;;;;;;5.69;100.00;94837.47;10400712;28;20821;-78
2023/04/29 00:44:13;;;;;;;7.70;4.47;;;;;;;5.84;100.00;94832.41;10425083;28;20660;-78
2023/04/29 00:49:13;;;;;;;9.63;5.15;;;;;;;5.63;100.00;94831.22;10407033;28;20464;-78
2023/04/29 00:54:14;;;;;;;10.90;6.25;;;;;;;5.61;100.00;94828.81;10425017;28;20464;-78
2023/04/29 00:59:16;;;;;;;11.27;6.70;;;;;;;5.47;100.00;94817.63;10406796;28;20029;-79
2023/04/29 01:04:17;;;;;;;13.27;7.30;;;;;;;5.49;100.00;94809.41;10425005;28;20029;-77
2023/04/29 01:09:54;;;;;;;12.98;6.60;;;;;;;5.47;100.00;94800.84;10422414;28;20029;-79
2023/04/29 01:15:11;;;;;;;15.98;7.03;;;;;;;5.34;100.00;94793.91;10423361;28;20464;-76
2023/04/29 01:20:13;;;;;;;16.05;6.72;;;;;;;5.48;100.00;94791.78;10424951;28;20041;-78
2023/04/29 01:25:14;;;;;;;17.08;8.32;;;;;;;5.59;100.00;94792.78;10435943;28;20024;-80
2023/04/29 01:30:32;;;;;;;16.30;7.70;;;;;;;5.64;100.00;94783.00;10431182;28;20021;-81
2023/04/29 01:35:38;;;;;;;13.50;6.40;;;;;;;5.67;100.00;94796.91;10406197;28;20091;-79
2023/04/29 01:41:08;;;;;;;8.00;5.53;;;;;;;5.71;100.00;94787.38;10428246;28;20459;-78
2023/04/29 01:46:10;;;;;;;10.02;4.57;;;;;;;5.61;100.00;94788.81;10404415;28;20033;-78
2023/04/29 01:51:11;;;;;;;6.03;4.47;;;;;;;5.58;100.00;94786.63;10408097;28;20355;-79
2023/04/29 01:56:11;;;;;;;7.55;4.88;;;;;;;5.38;100.00;94783.59;10409594;28;20031;-78
2023/04/29 02:01:12;;;;;;;8.93;4.67;;;;;;;5.14;100.00;94778.38;10409692;28;20104;-80
2023/04/29 02:06:12;;;;;;;9.07;4.32;;;;;;;5.04;100.00;94788.84;10427072;28;20658;-79
2023/04/29 02:11:13;;;;;;;8.43;4.07;;;;;;;4.96;100.00;94798.00;10424881;28;20024;-79
2023/04/29 02:16:14;;;;;;;9.13;5.03;;;;;;;4.81;100.00;94789.72;10438619;28;20053;-79
2023/04/29 02:21:15;;;;;;;11.52;4.72;;;;;;;4.84;100.00;94794.56;10436534;28;20279;-80
2023/04/29 02:26:15;;;;;;;8.00;4.70;;;;;;;4.87;100.00;94789.59;10438590;28;20117;-79
2023/04/29 02:31:15;;;;;;;15.40;4.10;;;;;;;4.90;100.00;94793.63;10438057;28;20498;-79
2023/04/29 02:36:17;;;;;;;9.63;4.20;;;;;;;4.85;100.00;94793.53;10438051;28;20697;-80
2023/04/29 02:41:17;;;;;;;10.85;5.00;;;;;;;4.85;100.00;94785.53;10437335;28;20290;-80
2023/04/29 02:46:18;;;;;;;10.43;5.53;;;;;;;4.87;100.00;94792.25;10437403;28;20025;-81
2023/04/29 02:51:18;;;;;;;10.63;4.30;;;;;;;4.73;100.00;94783.72;10434946;28;20100;-80
2023/04/29 02:56:19;;;;;;;11.10;5.03;;;;;;;4.78;100.00;94798.97;10431972;28;20033;-80
2023/04/29 03:01:20;;;;;;;8.67;5.27;;;;;;;4.70;100.00;94809.97;10436643;28;20029;-81
2023/04/29 03:06:21;;;;;;;8.80;5.45;;;;;;;4.62;100.00;94827.94;10418355;28;20287;-79
2023/04/29 03:11:23;;;;;;;9.47;4.97;;;;;;;4.64;100.00;94811.72;10420339;28;20036;-79
2023/04/29 03:16:24;;;;;;;11.95;5.68;;;;;;;4.59;100.00;94811.63;10434002;28;20638;-79
2023/04/29 03:21:26;;;;;;;13.52;6.95;;;;;;;4.50;100.00;94813.03;10434387;28;20052;-79
2023/04/29 03:26:26;;;;;;;16.02;7.00;;;;;;;4.49;100.00;94817.53;10422256;28;20025;-80
2023/04/29 03:31:27;;;;;;;14.65;7.60;;;;;;;4.55;100.00;94829.91;10421409;28;20024;-79
2023/04/29 03:36:28;;;;;;;15.35;7.05;;;;;;;4.50;100.00;94840.44;10416259;28;20021;-80
2023/04/29 03:41:28;;;;;;;14.77;7.57;;;;;;;4.57;100.00;94849.13;10433532;28;20167;-79
2023/04/29 03:46:29;;;;;;;11.65;7.13;;;;;;;4.65;100.00;94853.28;10431525;28;20047;-80
2023/04/29 03:51:30;;;;;;;14.38;8.10;;;;;;;4.75;100.00;94850.03;10417275;28;20071;-80
2023/04/29 03:56:30;;;;;;;15.80;8.00;;;;;;;4.90;100.00;94846.91;10431845;28;20879;-80
2023/04/29 04:01:30;;;;;;;20.70;9.63;;;;;;;4.99;100.00;94842.81;10431190;28;20025;-79
2023/04/29 04:06:31;;;;;;;28.73;7.28;;;;;;;5.24;100.00;94839.03;10418396;28;20271;-80
2023/04/29 04:11:31;;;;;;;9.73;5.93;;;;;;;5.17;100.00;94835.72;10431621;28;20070;-79
2023/04/29 04:16:32;;;;;;;11.75;6.80;;;;;;;5.03;100.00;94843.97;10411828;28;20136;-78
2023/04/29 04:21:32;;;;;;;8.37;5.33;;;;;;;5.05;100.00;94847.22;10409582;28;20107;-78
2023/04/29 04:26:33;;;;;;;9.80;5.83;;;;;;;5.24;100.00;94847.03;10426629;28;20669;-78
2023/04/29 04:31:33;;;;;;;14.07;5.72;;;;;;;5.64;100.00;94840.84;10426317;28;20318;-78
2023/04/29 04:36:34;;;;;;;8.30;5.50;;;;;;;5.68;100.00;94827.84;10415975;28;20480;-78
2023/04/29 04:41:34;;;;;;;7.85;4.85;;;;;;;5.97;100.00;94837.47;10420571;28;20815;-78
2023/04/29 04:46:35;;;;;;;11.18;5.72;;;;;;;6.15;100.00;94832.94;10426825;28;20118;-81
2023/04/29 04:51:36;;;;;;;8.20;5.45;;;;;;;6.34;100.00;94838.84;10427530;28;20032;-78
2023/04/29 04:56:36;;;;;;;18.45;4.55;;;;;;;6.58;100.00;94847.47;10423878;28;20013;-79
2023/04/29 05:01:37;;;;;;;11.63;5.68;;;;;;;7.10;100.00;94840.13;10409777;28;20032;-81
2023/04/29 05:06:37;;;;;;;13.18;6.70;;;;;;;7.07;100.00;94840.63;10428831;28;20407;-80
2023/04/29 05:11:37;;;;;;;11.63;5.67;;;;;;;7.17;100.00;94824.72;10411579;28;20025;-80
2023/04/29 05:16:38;;;;;;;11.13;4.40;;;;;;;7.65;100.00;94825.78;10428225;28;20800;-80
2023/04/29 05:21:38;;;;;;;10.32;5.03;;;;;;;7.87;100.00;94811.56;10427248;28;20398;-80
2023/04/29 05:26:39;;;;;;;11.43;5.28;;;;;;;7.53;100.00;94798.38;10439719;28;20028;-79
2023/04/29 05:31:39;;;;;;;9.63;5.20;;;;;;;7.28;100.00;94801.59;10419456;28;20523;-77
2023/04/29 05:36:40;;;;;;;9.45;5.80;;;;;;;7.88;100.00;94794.41;10424504;28;20797;-77
2023/04/29 05:41:41;;;;;;;13.60;5.50;;;;;;;8.27;100.00;94798.75;10421211;28;20090;-78
2023/04/29 05:46:41;;;;;;;9.05;4.57;;;;;;;8.20;100.00;94786.41;10424965;28;20040;-78
2023/04/29 05:51:41;;;;;;;11.63;5.30;;;;;;;8.64;100.00;94782.69;10403556;28;20086;-80
2023/04/29 05:56:42;;;;;;;8.07;4.43;;;;;;;9.41;95.91;94780.31;10415760;28;20282;-77
2023/04/29 06:01:42;;;;;;;11.63;6.13;;;;;;;10.27;100.00;94796.00;10432027;28;20302;-77
2023/04/29 06:06:43;;;;;;;11.00;5.50;;;;;;;12.22;79.59;94782.84;10419448;28;20487;-80
2023/04/29 06:11:43;;;;;;;8.82;6.00;;;;;;;13.79;68.41;94785.97;10407217;28;20021;-83
2023/04/29 06:16:44;;;;;;;8.98;4.90;;;;;;;15.24;56.88;94767.31;10407274;28;20053;-83
2023/04/29 06:21:44;;;;;;;10.47;5.10;;;;;;;16.42;50.83;94767.41;10423709;28;20043;-78
2023/04/29 06:26:45;;;;;;;7.83;5.17;;;;;;;17.08;46.44;94772.28;10424306;28;20279;-80
2023/04/29 06:31:45;;;;;;;11.47;5.80;;;;;;;17.78;47.43;94769.75;10418762;28;20033;-81
2023/04/29 06:36:46;;;;;;;10.03;5.30;;;;;;;18.69;45.31;94761.72;10422910;28;20473;-78
2023/04/29 06:41:46;;;;;;;10.43;5.68;;;;;;;19.00;44.04;94763.41;10415736;28;20302;-80
2023/04/29 06:46:46;;;;;;;12.90;5.17;;;;;;;19.53;43.58;94765.91;10418886;28;20403;-75
2023/04/29 06:51:47;;;;;;;11.10;4.27;;;;;;;-146.07;100.00;70291.31;10415828;28;20021;-77
2023/04/29 06:56:47;;;;;;;6.73;4.53;;;;;;;-146.07;100.00;70291.31;10421848;28;20295;-83
2023/04/29 07:01:48;;;;;;;8.02;4.47;;;;;;;-146.07;100.00;70291.31;10435251;28;20035;-82
2023/04/29 07:06:48;;;;;;;14.15;4.93;;;;;;;-146.07;100.00;70291.31;10443330;28;20025;-81
2023/04/29 07:11:49;;;;;;;8.32;4.90;;;;;;;-146.07;100.00;70291.31;10432372;28;20080;-79
2023/04/29 07:16:53;;;;;;;6.88;5.47;;;;;;;-146.07;100.00;70291.31;10426634;28;20072;-80
2023/04/29 07:21:54;;;;;;;10.55;4.82;;;;;;;-146.07;100.00;70291.31;10420813;28;20029;-79
2023/04/29 07:26:55;;;;;;;13.50;5.70;;;;;;;-146.07;100.00;70291.31;10403834;28;20055;-79
2023/04/29 07:31:56;;;;;;;11.13;5.68;;;;;;;-146.07;100.00;70291.31;10434589;28;20501;-78
2023/04/29 07:36:56;;;;;;;9.85;5.70;;;;;;;-146.07;100.00;70291.31;10419504;28;20033;-78
2023/04/29 07:41:56;;;;;;;7.17;4.93;;;;;;;-146.07;100.00;70291.31;10424712;28;20117;-76
2023/04/29 07:46:57;;;;;;;9.02;4.30;;;;;;;-98.67;34.15;94737.38;10425415;28;20033;-78
2023/04/29 07:51:57;;;;;;;7.27;4.20;;;;;;;23.64;34.18;94738.50;10413168;28;20033;-79
2023/04/29 07:56:58;;;;;;;6.20;4.23;;;;;;;23.53;32.42;94721.78;10427365;28;20071;-79
2023/04/29 08:01:58;;;;;;;13.30;4.95;;;;;;;24.80;32.66;94724.44;10414935;28;20490;-75
2023/04/29 08:06:59;;;;;;;9.00;4.30;;;;;;;24.91;31.83;94712.47;10425845;28;20032;-80
2023/04/29 08:12:00;;;;;;;6.97;4.15;;;;;;;24.59;32.48;94714.63;10427587;28;20275;-77
2023/04/29 08:17:01;;;;;;;6.32;3.92;;;;;;;67.69;30.90;94702.78;10425164;28;20021;-77
2023/04/29 08:22:03;;;;;;;12.13;4.37;;;;;;;25.10;30.80;94701.78;10425615;28;20037;-77
2023/04/29 08:27:03;;;;;;;9.25;3.38;;;;;;;27.16;27.93;94683.19;10434508;28;20036;-77
2023/04/29 08:32:04;;;;;;;5.40;3.58;;;;;;;26.36;29.69;94687.88;10424956;28;20021;-76
2023/04/29 08:37:07;;;;;;;8.38;3.50;;;;;;;25.63;27.94;94692.81;10424360;28;20047;-77
2023/04/29 08:42:09;;;;;;;8.30;3.35;;;;;;;25.66;29.86;94695.63;10424902;28;20518;-77
2023/04/29 08:47:10;;;;;;;5.30;2.97;;;;;;;26.76;28.12;94682.81;10406642;28;20368;-77
2023/04/29 08:52:10;;;;;;;4.80;2.95;;;;;;;23.72;28.45;94688.13;10423575;28;20029;-77
2023/04/29 08:57:12;;;;;;;5.68;2.75;;;;;;;23.84;28.82;94678.16;10423643;28;20056;-77
2023/04/29 09:02:20;;;;;;;4.70;2.60;;;;;;;24.90;28.30;94664.13;10405657;28;20452;-77
2023/04/29 09:07:21;;;;;;;4.68;2.30;;;;;;;26.92;24.32;94653.03;10423933;28;20116;-77
2023/04/29 09:12:21;;;;;;;8.55;2.63;;;;;;;26.92;28.18;94657.75;10422562;28;20037;-76
2023/04/29 09:17:41;;;;;;;8.65;2.28;;;;;;;26.08;27.01;94649.75;10423481;28;20028;-76
2023/04/29 09:23:02;;;;;;;4.22;2.85;;;;;;;23.19;30.07;94654.78;10381888;28;20038;-77
2023/04/29 09:28:16;;;;;;;6.30;2.40;;;;;;;25.10;27.62;94644.81;10406764;28;20037;-77
2023/04/29 09:33:16;;;;;;;6.22;2.60;;;;;;;25.67;27.99;94641.34;10423665;28;20087;-77
2023/04/29 09:38:17;;;;;;;4.53;2.15;;;;;;;25.48;28.08;94629.31;10405429;28;20090;-78
2023/04/29 09:43:18;;;;;;;7.60;2.33;;;;;;;25.41;29.07;94630.00;10422041;28;20124;-76
2023/04/29 09:48:18;;;;;;;8.40;2.22;;;;;;;24.06;28.04;94635.50;10422427;28;20029;-76
2023/04/29 09:53:28;;;;;;;4.70;2.33;;;;;;;24.13;29.41;94619.19;10422110;28;20090;-76
2023/04/29 09:58:38;;;;;;;6.95;2.63;;;;;;;23.77;28.99;94612.16;10404334;28;20057;-76
2023/04/29 10:03:41;;;;;;;4.57;2.97;;;;;;;23.95;30.17;94605.09;10420150;28;20052;-78
2023/04/29 10:08:43;;;;;;;12.57;3.17;;;;;;;23.04;31.13;94605.09;10404305;28;20029;-76
2023/04/29 10:13:44;;;;;;;8.98;4.13;;;;;;;22.53;32.24;94599.53;10422042;28;20048;-76
2023/04/29 10:18:52;;;;;;;8.13;4.68;;;;;;;22.18;31.89;94592.75;10419966;28;20586;-76
2023/04/29 10:23:55;;;;;;;8.93;4.32;;;;;;;22.83;30.58;94588.16;10420726;28;20029;-79
2023/04/29 10:28:56;;;;;;;8.13;4.70;;;;;;;22.44;32.79;94577.81;10421317;28;20156;-72
2023/04/29 10:33:57;;;;;;;5.80;3.63;;;;;;;22.87;30.48;94575.31;10424029;28;20028;-76
2023/04/29 10:39:02;;;;;;;7.25;3.80;;;;;;;22.65;30.92;94580.28;10427306;28;20108;-78
2023/04/29 10:44:03;;;;;;;8.70;4.00;;;;;;;22.99;29.50;94574.41;10424089;28;20029;-77
2023/04/29 10:49:05;;;;;;;13.27;4.10;;;;;;;21.98;30.91;94578.16;10425356;28;20028;-76
2023/04/29 10:54:14;;;;;;;8.88;3.90;;;;;;;21.54;31.09;94575.38;10426722;28;20418;-78
2023/04/29 10:59:35;;;;;;;12.07;4.57;;;;;;;21.13;32.30;94578.09;10425558;28;20024;-78
2023/04/29 11:05:11;;;;;;;9.75;3.85;;;;;;;20.45;32.95;94575.94;10396953;28;20091;-76
2023/04/29 11:10:12;;;;;;;12.35;5.22;;;;;;;20.98;31.81;94567.88;10424482;28;20119;-76
2023/04/29 11:15:17;;;;;;;8.15;2.70;;;;;;;21.19;31.04;94569.66;10385799;28;1167064;-77
2023/04/29 11:20:17;;;;;;;7.47;2.90;;;;;;;20.80;29.40;94561.84;10426956;28;20029;-77
2023/04/29 11:25:18;;;;;;;3.85;2.30;;;;;;;20.32;31.20;94569.66;10427449;28;20020;-77
2023/04/29 11:30:18;;;;;;;3.47;2.23;;;;;;;18.79;34.02;94568.03;10427647;28;20717;-77
2023/04/29 11:35:19;;;;;;;2.83;1.75;;;;;;;18.86;34.92;94572.19;10427987;28;20090;-77
2023/04/29 11:40:20;;;;;;;6.20;2.10;;;;;;;18.50;34.59;94562.59;10426903;28;20415;-76
2023/04/29 11:45:20;;;;;;;6.57;2.47;;;;;;;17.93;36.42;94564.56;10426154;28;20067;-76
2023/04/29 11:50:20;;;;;;;13.00;3.27;;;;;;;18.16;38.58;94569.81;10426814;28;20079;-76
2023/04/29 11:55:21;;;;;;;7.37;2.30;;;;;;;18.25;37.73;94557.75;10425531;28;21033;-76
2023/04/29 12:00:23;;;;;;;6.32;2.38;;;;;;;18.34;36.60;94565.09;10425605;28;20287;-76
2023/04/29 12:05:27;;;;;;;9.90;3.33;;;;;;;18.54;36.10;94558.91;10426335;28;20364;-76
2023/04/29 12:10:27;;;;;;;6.95;2.20;;;;;;;18.41;36.33;94566.16;10425068;28;20498;-76
2023/04/29 12:15:30;;;;;;;5.13;1.88;;;;;;;18.55;39.06;94565.94;10425163;28;20119;-76
2023/04/29 12:20:31;;;;;;;2.92;1.83;;;;;;;18.20;40.25;94563.38;10425380;28;20527;-76
2023/04/29 12:25:31;;;;;;;4.63;1.70;;;;;;;18.15;44.22;94563.53;10406834;28;20102;-77
2023/04/29 12:30:34;;;;;;;4.63;1.45;;;;;;;17.88;43.77;94549.19;10424407;28;20037;-77
2023/04/29 12:35:36;;;;;;;3.53;1.55;;;;;;;16.86;45.89;94547.81;10424049;28;20032;-76
2023/04/29 12:40:36;;;;;;;5.40;2.00;;;;;;;16.39;43.63;94548.34;10423244;28;20036;-76
2023/04/29 12:45:37;;;;;;;5.35;1.80;;;;;;;16.15;45.29;94549.53;10424559;28;20446;-76
2023/04/29 12:50:38;;;;;;;6.35;1.85;;;;;;;15.94;45.83;94543.88;10424185;28;20033;-76
2023/04/29 12:55:39;;;;;;;4.07;2.00;;;;;;;16.29;47.66;94545.94;10423341;28;20032;-76
2023/04/29 13:00:40;;;;;;;4.63;2.03;;;;;;;16.65;46.51;94536.78;10423907;28;20385;-75
2023/04/29 13:05:41;;;;;;;4.70;1.88;;;;;;;16.72;45.05;94534.38;10422606;28;20036;-77
2023/04/29 13:10:45;;;;;;;7.22;2.25;;;;;;;16.90;47.97;94529.81;10404817;28;20468;-76
2023/04/29 13:15:46;;;;;;;7.07;1.80;;;;;;;17.13;48.54;94527.72;10425516;28;20045;-76
2023/04/29 13:20:47;;;;;;;7.57;2.00;;;;;;;16.94;48.29;94527.25;10422705;28;20028;-76
2023/04/29 13:25:49;;;;;;;7.32;2.10;;;;;;;16.94;50.40;94522.63;10422642;28;20464;-76
2023/04/29 13:30:51;;;;;;;11.57;2.42;;;;;;;17.21;53.55;94518.00;10404134;28;20075;-76
2023/04/29 13:35:51;;;;;;;4.05;1.60;;;;;;;16.92;49.92;94520.22;10404519;28;20132;-76
2023/04/29 13:40:52;;;;;;;2.22;1.40;;;;;;;17.73;48.31;94526.03;10402992;28;20032;-76
2023/04/29 13:45:56;;;;;;;2.50;1.45;;;;;;;18.06;49.98;94532.88;10404846;28;20525;-78
2023/04/29 13:50:56;;;;;;;7.32;1.60;;;;;;;18.15;44.72;94521.97;10419787;28;20021;-75
2023/04/29 13:55:57;;;;;;;3.27;1.30;;;;;;;18.50;45.33;94519.06;10419858;28;20028;-70
2023/04/29 14:00:58;;;;;;;2.10;1.73;;;;;;;18.83;44.91;94516.47;10421337;28;20268;-73
2023/04/29 14:06:00;;;;;;;1.88;1.20;;;;;;;18.42;43.55;94504.41;10419204;28;20442;-77
2023/04/29 14:11:00;;;;;;;5.90;1.27;;;;;;;18.64;41.26;94503.28;10419754;28;20064;-73
2023/04/29 14:16:03;;;;;;;2.55;1.63;;;;;;;18.24;44.17;94490.88;10418545;28;20140;-72
2023/04/29 14:21:04;;;;;;;5.57;1.20;;;;;;;18.42;45.30;94496.25;10419862;28;20388;-74
2023/04/29 14:26:05;;;;;;;3.22;1.35;;;;;;;18.25;44.42;94487.03;10402387;28;20033;-71
2023/04/29 14:31:06;;;;;;;3.70;2.30;;;;;;;18.01;44.17;94487.59;10420801;28;20106;-72
2023/04/29 14:36:06;;;;;;;3.55;1.50;;;;;;;17.59;46.47;94493.63;10419727;28;20406;-72
2023/04/29 14:41:07;;;;;;;2.78;1.63;;;;;;;17.61;46.01;94482.47;10419212;28;20427;-71
2023/04/29 14:46:09;;;;;;;4.28;2.30;;;;;;;16.86;47.12;94479.97;10420351;28;20025;-72
2023/04/29 14:51:10;;;;;;;8.88;1.92;;;;;;;16.67;50.22;94475.63;10399504;28;20028;-72
2023/04/29 14:56:14;;;;;;;3.00;2.10;;;;;;;16.73;51.82;94470.84;10417583;28;20029;-73
2023/04/29 15:01:15;;;;;;;4.47;1.80;;;;;;;16.58;47.24;94467.47;10417256;28;20021;-73
2023/04/29 15:06:15;;;;;;;2.60;1.80;;;;;;;16.72;45.47;94464.63;10419793;28;20028;-73
2023/04/29 15:11:16;;;;;;;5.00;2.15;;;;;;;16.39;47.03;94459.63;10419789;28;20653;-72
2023/04/29 15:16:16;;;;;;;7.38;2.33;;;;;;;16.62;50.96;94458.69;10419652;28;20053;-72
2023/04/29 15:21:17;;;;;;;3.75;2.00;;;;;;;16.63;47.22;94447.53;10424597;28;20636;-71
2023/04/29 15:26:18;;;;;;;4.13;2.70;;;;;;;16.76;47.37;94456.66;10425857;28;20033;-72
2023/04/29 15:31:19;;;;;;;4.70;2.63;;;;;;;16.87;49.34;94449.78;10426369;28;20029;-72
2023/04/29 15:36:27;;;;;;;6.13;3.17;;;;;;;16.62;50.45;94442.41;10427268;28;20032;-72
2023/04/29 15:41:27;;;;;;;5.80;3.42;;;;;;;16.65;49.15;94447.22;10426307;28;20555;-72
2023/04/29 15:46:29;;;;;;;6.00;3.03;;;;;;;16.69;50.61;94440.06;10424846;28;20151;-72
2023/04/29 15:51:30;;;;;;;6.55;2.60;;;;;;;16.44;48.98;94442.44;10407971;28;20025;-73
2023/04/29 15:56:30;;;;;;;6.80;3.47;;;;;;;16.64;48.34;94442.91;10425845;28;20021;-73
2023/04/29 16:01:31;;;;;;;4.40;2.40;;;;;;;16.54;49.77;94444.03;10425603;28;20033;-72
2023/04/29 16:06:31;;;;;;;4.53;2.15;;;;;;;16.58;48.79;94443.06;10425370;28;20271;-72
2023/04/29 16:11:32;;;;;;;7.28;2.42;;;;;;;16.46;48.09;94436.69;10424254;28;20507;-72
2023/04/29 16:16:33;;;;;;;11.40;2.92;;;;;;;16.37;49.45;94433.97;10424050;28;20049;-72
2023/04/29 16:21:33;;;;;;;6.75;2.78;;;;;;;16.31;49.97;94435.22;10424239;28;20021;-72
2023/04/29 16:26:35;;;;;;;4.70;2.72;;;;;;;16.25;49.82;94439.19;10424105;28;20090;-72
2023/04/29 16:31:36;;;;;;;4.20;2.20;;;;;;;16.13;49.97;94445.22;10433632;28;20029;-72
2023/04/29 16:36:36;;;;;;;4.88;2.10;;;;;;;16.13;50.56;94439.81;10420737;28;20021;-71
2023/04/29 16:41:36;;;;;;;6.93;2.53;;;;;;;16.16;50.30;94448.13;10399648;28;20464;-75
2023/04/29 16:46:37;;;;;;;5.65;2.80;;;;;;;16.17;51.33;94459.75;10421777;28;20063;-72
2023/04/29 16:51:37;;;;;;;8.32;2.80;;;;;;;16.10;50.37;94471.03;10422205;28;20032;-72
2023/04/29 16:56:38;;;;;;;6.88;3.78;;;;;;;15.71;56.32;94481.56;10421722;28;20075;-73
2023/04/29 17:01:39;;;;;;;7.72;3.70;;;;;;;15.08;74.83;94494.25;10421350;28;20029;-70
2023/04/29 17:06:40;;;;;;;5.15;3.45;;;;;;;14.64;91.09;94498.53;10421834;28;20473;-70
2023/04/29 17:11:40;;;;;;;4.70;3.22;;;;;;;14.73;91.66;94490.47;10420934;28;20051;-70
2023/04/29 17:16:41;;;;;;;5.65;3.65;;;;;;;14.67;92.88;94495.19;10419979;28;20535;-72
2023/04/29 17:21:41;;;;;;;3.58;2.88;;;;;;;14.23;100.00;94492.03;10419955;28;20483;-71
2023/04/29 17:26:42;;;;;;;10.32;3.83;;;;;;;14.04;90.37;94494.88;10421086;28;20043;-71
2023/04/29 17:31:47;;;;;;;6.97;4.23;;;;;;;14.23;100.00;94499.34;10420114;28;20331;-72
2023/04/29 17:36:51;;;;;;;10.77;4.20;;;;;;;14.28;92.40;94499.25;10419749;28;20037;-73
2023/04/29 17:41:51;;;;;;;7.32;3.90;;;;;;;14.18;100.00;94498.34;10400563;28;20028;-72
2023/04/29 17:46:52;;;;;;;9.40;4.50;;;;;;;14.31;100.00;94496.72;10403470;28;20487;-72
2023/04/29 17:51:52;;;;;;;9.98;4.18;;;;;;;14.39;98.44;94503.34;10396972;28;20290;-72
2023/04/29 17:56:53;;;;;;;10.30;4.25;;;;;;;14.39;86.91;94505.25;10393889;28;20111;-72
2023/04/29 18:01:53;;;;;;;7.07;3.88;;;;;;;14.25;86.68;94502.56;10394388;28;20388;-72
2023/04/29 18:06:54;;;;;;;6.32;3.67;;;;;;;14.27;89.16;94503.06;10395311;28;20032;-72
2023/04/29 18:12:04;;;;;;;9.60;5.22;;;;;;;14.13;84.82;94509.25;10394426;28;20602;-72
2023/04/29 18:17:04;;;;;;;7.30;4.50;;;;;;;13.99;88.09;94509.25;10391790;28;20466;-72
2023/04/29 18:22:06;;;;;;;10.75;4.53;;;;;;;14.06;89.85;94506.16;10394072;28;20516;-71
2023/04/29 18:27:06;;;;;;;8.05;4.97;;;;;;;14.09;85.84;94513.66;10375520;28;20360;-72
2023/04/29 18:32:07;;;;;;;9.70;5.97;;;;;;;13.97;90.92;94516.09;10392653;28;20024;-72
2023/04/29 18:37:07;;;;;;;12.40;6.70;;;;;;;13.72;97.69;94509.25;10396106;28;20033;-72
2023/04/29 18:42:08;;;;;;;11.50;5.97;;;;;;;13.69;100.00;94521.47;10393292;28;20786;-72
2023/04/29 18:47:09;;;;;;;9.17;4.77;;;;;;;13.70;100.00;94519.53;10398496;28;20024;-71
2023/04/29 18:52:09;;;;;;;15.88;5.10;;;;;;;13.68;100.00;94526.03;10377193;28;20314;-71
2023/04/29 18:57:11;;;;;;;9.13;4.75;;;;;;;13.65;100.00;94525.84;10387212;28;20032;-71
2023/04/29 19:02:19;;;;;;;8.02;5.20;;;;;;;13.72;100.00;94528.97;10406625;28;20411;-72
2023/04/29 19:07:20;;;;;;;9.75;5.53;;;;;;;13.72;100.00;94530.88;10402753;28;20479;-73
2023/04/29 19:12:20;;;;;;;17.83;6.25;;;;;;;13.74;100.00;94524.03;10399969;28;20559;-76
2023/04/29 19:17:21;;;;;;;15.43;5.97;;;;;;;13.73;100.00;94527.03;10404752;28;20036;-73
2023/04/29 19:22:21;;;;;;;10.83;6.40;;;;;;;13.76;100.00;94521.88;10399622;28;20033;-73
2023/04/29 19:27:22;;;;;;;10.30;6.38;;;;;;;13.76;100.00;94521.88;10411267;28;21146;-72
2023/04/29 19:32:23;;;;;;;10.88;5.53;;;;;;;13.67;100.00;94523.63;10400167;28;20029;-73
2023/04/29 19:37:23;;;;;;;12.30;4.95;;;;;;;13.81;100.00;94529.88;10404007;28;20480;-70
2023/04/29 19:42:24;;;;;;;13.25;6.30;;;;;;;13.65;100.00;94525.84;10406390;28;20078;-70
2023/04/29 19:47:24;;;;;;;13.77;6.20;;;;;;;13.47;100.00;94530.22;10399120;28;20039;-75
2023/04/29 19:52:25;;;;;;;12.05;6.93;;;;;;;13.47;100.00;94517.50;10403710;28;20761;-73
2023/04/29 19:57:27;;;;;;;10.02;6.05;;;;;;;13.42;100.00;94528.38;10399587;28;20399;-68
2023/04/29 20:02:27;;;;;;;10.02;5.95;;;;;;;13.61;100.00;94530.25;10403472;28;20034;-74
2023/04/29 20:07:28;;;;;;;30.52;6.50;;;;;;;13.67;100.00;94527.16;10385427;28;20793;-77
2023/04/29 20:12:28;;;;;;;12.20;6.17;;;;;;;13.64;100.00;94524.25;10397765;28;20049;-77
2023/04/29 20:17:28;;;;;;;11.40;6.70;;;;;;;13.52;100.00;94516.59;10408634;28;20345;-78
2023/04/29 20:22:32;;;;;;;8.25;4.95;;;;;;;13.42;100.00;94520.28;10402266;28;20287;-78
2023/04/29 20:27:32;;;;;;;10.30;5.78;;;;;;;13.34;100.00;94521.75;10400034;28;20068;-78
2023/04/29 20:32:32;;;;;;;9.50;6.07;;;;;;;13.43;100.00;94523.81;10408655;28;20112;-72
2023/04/29 20:37:33;;;;;;;11.77;5.65;;;;;;;13.42;100.00;94517.59;10403283;28;20427;-74
2023/04/29 20:42:33;;;;;;;9.15;5.70;;;;;;;13.35;100.00;94514.47;10403626;28;20033;-75
2023/04/29 20:47:34;;;;;;;16.50;6.37;;;;;;;13.12;100.00;94508.09;10400601;28;20100;-75
2023/04/29 20:52:35;;;;;;;14.18;6.35;;;;;;;13.11;100.00;94518.06;10404193;28;20676;-75
2023/04/29 20:57:36;;;;;;;10.00;5.50;;;;;;;13.08;100.00;94510.56;10394411;28;20029;-75
2023/04/29 21:02:36;;;;;;;11.05;5.68;;;;;;;13.05;100.00;94513.84;10409472;28;20395;-73
2023/04/29 21:07:37;;;;;;;11.07;6.07;;;;;;;13.01;100.00;94518.22;10397502;28;20482;-73
2023/04/29 21:12:37;;;;;;;13.27;6.15;;;;;;;12.80;100.00;94521.22;10399778;28;20045;-73
2023/04/29 21:17:38;;;;;;;10.20;6.05;;;;;;;12.85;100.00;94516.84;10412190;28;20037;-76
2023/04/29 21:22:38;;;;;;;8.95;5.85;;;;;;;12.67;100.00;94508.50;10422713;28;20041;-77
2023/04/29 21:27:39;;;;;;;11.83;6.07;;;;;;;12.73;100.00;94512.72;10425708;28;20114;-77
2023/04/29 21:32:39;;;;;;;9.43;6.35;;;;;;;12.47;100.00;94514.97;10424823;28;20954;-75
2023/04/29 21:37:40;;;;;;;13.93;7.00;;;;;;;-146.07;100.00;70291.31;10422635;28;20098;-77
2023/04/29 21:42:42;;;;;;;9.95;7.07;;;;;;;-146.07;100.00;70291.31;10423656;28;20086;-76
2023/04/29 21:47:42;;;;;;;21.15;7.57;;;;;;;-146.07;100.00;70291.31;10422953;28;20033;-77
2023/04/29 21:52:43;;;;;;;14.57;8.15;;;;;;;-146.07;100.00;70291.31;10423338;28;20021;-76
2023/04/29 21:57:43;;;;;;;14.20;7.60;;;;;;;-146.07;100.00;70291.31;10423051;28;20035;-76
2023/04/29 22:02:44;;;;;;;16.60;7.70;;;;;;;-146.07;100.00;70291.31;10422413;28;20029;-76
2023/04/29 22:07:44;;;;;;;16.73;8.40;;;;;;;-146.07;100.00;70291.31;10422265;28;20971;-76
2023/04/29 22:12:45;;;;;;;16.05;8.43;;;;;;;-146.07;100.00;70291.31;10404158;28;20515;-76
2023/04/29 22:17:45;;;;;;;13.73;7.47;;;;;;;-146.07;100.00;70291.31;10421024;28;20021;-76
2023/04/29 22:22:46;;;;;;;11.90;7.67;;;;;;;-146.07;100.00;70291.31;10423230;28;20120;-76
2023/04/29 22:27:47;;;;;;;13.40;7.47;;;;;;;-146.07;100.00;70291.31;10408959;28;20271;-77
2023/04/29 22:32:47;;;;;;;10.35;7.50;;;;;;;-146.07;100.00;70291.31;10416512;28;20032;-76
2023/04/29 22:37:48;;;;;;;14.75;7.75;;;;;;;-146.07;100.00;70291.31;10430648;28;20040;-77
2023/04/29 22:42:48;;;;;;;15.67;8.97;;;;;;;-146.07;100.00;70291.31;10430865;28;20592;-76
2023/04/29 22:47:49;;;;;;;19.50;8.63;;;;;;;-146.07;100.00;70291.31;10427907;28;20267;-77
2023/04/29 22:52:49;;;;;;;16.40;8.25;;;;;;;-146.07;100.00;70291.31;10423608;28;20443;-77
2023/04/29 22:57:50;;;;;;;13.25;8.18;;;;;;;-146.07;100.00;70291.31;10430502;28;20021;-77
2023/04/29 23:02:51;;;;;;;15.73;8.35;;;;;;;-146.07;100.00;70291.31;10431253;28;20876;-77
2023/04/29 23:07:51;;;;;;;15.10;7.75;;;;;;;-146.07;100.00;70291.31;10430185;28;20124;-76